sim
Sign-in with your pilot id or email,
or register
Callsign
Passwort

Schedule Details

Flight Number: RYR5913 (1)
Departure: Fuerteventura Airport (GCFV) at 08:50
Arrival: Seville San Pablo Airport (LEZL) at 11:05
Route: Ryanair Passenger Schedule. Enter filed route here before submitting Pirep.

Weather Information
Getting current METAR information for GCFV 192200Z AUTO 36015KT 9999 FEW030 BKN045 18/12 Q1018
Getting current METAR information for LEZL 192200Z 03005KT 9999 FEW010 14/13 Q1016 NOSIG

Schedule Frequency

Route Map